createdAt,value
2023-04-23T00:01:44.912Z,12.00
2023-04-23T00:13:45.338Z,13.20
2023-04-23T00:25:45.805Z,15.20
2023-04-23T00:37:46.297Z,12.30
2023-04-23T00:49:46.696Z,14.40
2023-04-23T01:01:47.171Z,14.70
2023-04-23T01:13:47.618Z,22.20
2023-04-23T01:25:48.092Z,13.80
2023-04-23T01:37:48.525Z,12.90
2023-04-23T01:49:48.975Z,13.00
2023-04-23T02:01:49.442Z,14.50
2023-04-23T02:13:49.924Z,13.60
2023-04-23T02:25:50.365Z,15.40
2023-04-23T02:37:50.786Z,16.10
2023-04-23T02:49:51.238Z,16.20
2023-04-23T03:01:51.722Z,19.00
2023-04-23T03:13:52.138Z,18.90
2023-04-23T03:25:52.624Z,20.00
2023-04-23T03:37:53.078Z,15.70
2023-04-23T03:49:53.530Z,16.50
2023-04-23T04:01:53.958Z,18.00
2023-04-23T04:13:54.410Z,17.40
2023-04-23T04:25:54.882Z,18.50
2023-04-23T04:37:55.333Z,18.50
2023-04-23T04:49:55.782Z,17.90
2023-04-23T05:01:56.232Z,16.80
2023-04-23T05:13:56.677Z,18.60
2023-04-23T05:25:57.165Z,15.80
2023-04-23T05:37:57.589Z,23.80
2023-04-23T05:49:58.054Z,10.40
2023-04-23T06:01:58.479Z,9.90
2023-04-23T06:13:58.971Z,12.50
2023-04-23T06:25:59.377Z,8.20
2023-04-23T06:37:59.828Z,10.80
2023-04-23T06:50:00.322Z,10.00
2023-04-23T07:02:00.777Z,8.20
2023-04-23T07:14:01.232Z,8.90
2023-04-23T07:26:01.657Z,8.20
2023-04-23T07:38:02.134Z,8.30
2023-04-23T07:50:02.614Z,6.50
2023-04-23T08:02:03.028Z,4.60
2023-04-23T08:14:03.500Z,4.30
2023-04-23T08:26:03.932Z,4.90
2023-04-23T08:38:04.396Z,5.20
2023-04-23T08:50:04.827Z,7.80
2023-04-23T09:02:05.342Z,5.60
2023-04-23T09:14:05.790Z,5.20
2023-04-23T09:26:06.232Z,5.40
2023-04-23T09:38:06.656Z,7.40
2023-04-23T09:50:07.184Z,6.00
2023-04-23T10:02:07.740Z,6.50
2023-04-23T10:14:08.042Z,5.10
2023-04-23T10:26:08.487Z,5.50
2023-04-23T10:38:08.932Z,7.90
2023-04-23T10:50:09.433Z,8.20
2023-04-23T11:02:09.923Z,6.70
2023-04-23T11:14:10.392Z,5.90
2023-04-23T11:26:10.759Z,4.50
2023-04-23T11:38:11.266Z,4.40
2023-04-23T11:50:11.746Z,5.50
2023-04-23T12:02:12.207Z,6.30
2023-04-23T12:14:12.573Z,6.00
2023-04-23T12:26:13.055Z,5.70
2023-04-23T12:38:13.521Z,6.50
2023-04-23T12:50:13.946Z,7.70
2023-04-23T13:02:14.483Z,6.30
2023-04-23T13:14:14.900Z,5.80
2023-04-23T13:26:15.357Z,8.00
2023-04-23T13:38:15.846Z,9.10
2023-04-23T13:50:16.216Z,7.90
2023-04-23T14:02:16.714Z,7.50
2023-04-23T14:14:17.191Z,5.20
2023-04-23T14:26:17.604Z,6.90
2023-04-23T14:38:18.051Z,6.10
2023-04-23T14:50:18.593Z,4.30
2023-04-23T15:02:19.027Z,6.20
2023-04-23T15:14:19.439Z,5.00
2023-04-23T15:26:19.877Z,6.30
2023-04-23T15:38:20.363Z,4.90
2023-04-23T15:50:20.820Z,6.40
2023-04-23T16:02:21.316Z,4.70
2023-04-23T16:14:21.735Z,5.30
2023-04-23T16:26:22.235Z,6.10
2023-04-23T16:38:22.629Z,6.70
2023-04-23T16:50:23.110Z,4.70
2023-04-23T17:02:23.661Z,5.20
2023-04-23T17:14:23.969Z,7.00
2023-04-23T17:26:24.482Z,6.00
2023-04-23T17:38:24.903Z,7.80
2023-04-23T17:50:25.345Z,9.10
2023-04-23T18:02:25.925Z,6.80
2023-04-23T18:14:26.294Z,6.80
2023-04-23T18:26:26.692Z,8.20
2023-04-23T18:38:27.176Z,6.30
2023-04-23T18:50:27.616Z,7.90
2023-04-23T19:02:35.230Z,24.50
2023-04-23T19:14:28.542Z,7.30
2023-04-23T19:26:28.978Z,6.40
2023-04-23T19:38:29.458Z,8.90
2023-04-23T19:50:29.928Z,6.00
2023-04-23T20:02:30.478Z,4.10
2023-04-23T20:14:30.875Z,6.00
2023-04-23T20:26:31.257Z,6.50
2023-04-23T20:38:31.761Z,4.90
2023-04-23T20:50:32.173Z,6.30
2023-04-23T21:02:32.728Z,6.30
2023-04-23T21:14:33.087Z,6.40
2023-04-23T21:26:33.523Z,6.50
2023-04-23T21:38:33.975Z,7.10
2023-04-23T21:50:34.428Z,4.90
2023-04-23T22:02:34.953Z,12.20
2023-04-23T22:14:35.364Z,8.50
2023-04-23T22:26:35.781Z,9.50
2023-04-23T22:38:36.257Z,6.20
2023-04-23T22:50:36.712Z,6.00
2023-04-23T23:02:37.209Z,6.60
2023-04-23T23:14:37.824Z,7.60
2023-04-23T23:26:38.088Z,8.90
2023-04-23T23:38:38.545Z,7.30
2023-04-23T23:50:38.999Z,9.40
